Time;durP1;ratioP1;P1;durP2;ratioP2;P2;SDS_P1;SDS_P2;PMS_P1;PMS_P2;Temp;Humidity;BMP_temperature;BMP_pressure;BME280_temperature;BME280_humidity;BME280_pressure;Samples;Min_cycle;Max_cycle;Signal;HPM_P1;HPM_P2
2022/07/10 00:01:46;;;;;;;4.60;3.05;;;;;;;21.87;100.00;98951.59;1737916;81;21015;-69
2022/07/10 00:04:26;;;;;;;9.55;3.37;;;;;;;21.82;100.00;98938.64;1737511;81;21117;-70
2022/07/10 00:06:52;;;;;;;6.53;4.03;;;;;;;21.74;100.00;98938.66;1745538;81;21078;-70
2022/07/10 00:09:28;;;;;;;11.93;4.00;;;;;;;21.74;100.00;98936.45;1730207;81;20999;-71
2022/07/10 00:11:56;;;;;;;8.00;3.10;;;;;;;21.64;100.00;98938.92;1748990;81;21800;-69
2022/07/10 00:14:24;;;;;;;3.92;2.87;;;;;;;21.63;100.00;98942.14;1745341;81;21051;-70
2022/07/10 00:16:54;;;;;;;8.95;3.37;;;;;;;21.62;100.00;98950.34;1739605;81;20986;-70
2022/07/10 00:19:25;;;;;;;8.08;3.67;;;;;;;21.62;100.00;98957.34;1740219;81;21038;-68
2022/07/10 00:21:57;;;;;;;;;;;;;;;21.64;100.00;98960.54;1732823;82;21239;-70
2022/07/10 00:24:25;;;;;;;6.08;3.77;;;;;;;21.67;100.00;98958.91;1723970;82;20146;-69
2022/07/10 00:26:53;;;;;;;6.05;3.85;;;;;;;21.66;100.00;98956.73;1726435;82;21023;-69
2022/07/10 00:29:29;;;;;;;7.95;3.42;;;;;;;21.72;100.00;98957.88;1727762;82;21031;-70
2022/07/10 00:31:59;;;;;;;5.62;3.40;;;;;;;21.73;100.00;98953.08;1722596;82;21070;-69
2022/07/10 00:34:36;;;;;;;11.75;3.67;;;;;;;21.69;100.00;98955.09;1731497;81;21058;-70
2022/07/10 00:37:03;;;;;;;4.90;3.50;;;;;;;21.62;100.00;98949.74;1723367;82;21031;-71
2022/07/10 00:39:30;;;;;;;4.20;2.90;;;;;;;21.55;100.00;98951.18;1724589;82;21016;-66
2022/07/10 00:42:18;;;;;;;7.15;3.37;;;;;;;21.57;100.00;98947.97;1729296;82;21055;-69
2022/07/10 00:44:53;;;;;;;4.58;3.02;;;;;;;21.57;100.00;98951.58;1722324;82;21047;-70
2022/07/10 00:47:27;;;;;;;5.87;3.15;;;;;;;21.59;100.00;98952.56;1724529;81;22072;-70
2022/07/10 00:50:12;;;;;;;7.53;3.23;;;;;;;21.65;100.00;98943.31;1731365;82;21047;-69
2022/07/10 00:52:41;;;;;;;6.67;3.60;;;;;;;21.61;100.00;98944.55;1729876;81;21000;-69
2022/07/10 00:55:09;;;;;;;5.97;3.05;;;;;;;21.57;100.00;98945.97;1730340;82;21032;-68
2022/07/10 00:57:39;;;;;;;6.33;2.58;;;;;;;21.55;100.00;98945.58;1723848;81;21330;-71
2022/07/10 01:00:11;;;;;;;5.53;3.47;;;;;;;21.56;100.00;98943.58;1726205;82;21020;-71
2022/07/10 01:02:42;;;;;;;3.75;2.55;;;;;;;21.57;100.00;98944.56;1720815;82;21058;-70
2022/07/10 01:05:09;;;;;;;6.33;2.45;;;;;;;21.55;100.00;98947.57;1725891;82;21003;-68
2022/07/10 01:07:37;;;;;;;4.12;2.70;;;;;;;21.48;100.00;98943.61;1727770;82;21035;-69
2022/07/10 01:10:04;;;;;;;5.22;2.72;;;;;;;21.47;100.00;98944.02;1724058;82;21094;-71
2022/07/10 01:12:38;;;;;;;3.52;2.70;;;;;;;21.49;100.00;98938.22;1729432;82;21027;-71
2022/07/10 01:15:10;;;;;;;4.12;2.45;;;;;;;21.47;100.00;98939.82;1720924;82;21027;-71
2022/07/10 01:17:44;;;;;;;4.83;2.95;;;;;;;21.42;100.00;98934.05;1721649;82;21016;-71
2022/07/10 01:20:15;;;;;;;5.15;2.83;;;;;;;21.44;100.00;98934.45;1727080;81;21040;-71
2022/07/10 01:22:41;;;;;;;7.10;3.25;;;;;;;21.35;100.00;98934.89;1715753;81;21375;-71
2022/07/10 01:25:11;;;;;;;6.97;3.15;;;;;;;21.43;100.00;98931.43;1719157;82;21997;-71
2022/07/10 01:27:39;;;;;;;5.35;2.35;;;;;;;21.26;100.00;98924.72;1723487;82;21567;-69
2022/07/10 01:30:09;;;;;;;5.05;2.47;;;;;;;21.10;100.00;98921.79;1716863;82;21024;-69
2022/07/10 01:32:40;;;;;;;4.53;2.83;;;;;;;20.97;100.00;98921.45;1720982;81;22252;-69
2022/07/10 01:35:12;;;;;;;7.03;2.40;;;;;;;20.83;100.00;98918.06;1711880;82;21011;-70
2022/07/10 01:37:45;;;;;;;4.22;2.40;;;;;;;20.75;100.00;98916.50;1697160;82;21523;-69
2022/07/10 01:40:17;;;;;;;7.40;2.80;;;;;;;20.73;100.00;98911.30;1721226;82;21063;-70
2022/07/10 01:42:45;;;;;;;7.10;2.87;;;;;;;20.82;100.00;98911.48;1715090;82;21016;-70
2022/07/10 01:45:15;;;;;;;7.25;2.72;;;;;;;20.76;100.00;98913.91;1718891;82;21062;-71
2022/07/10 01:47:46;;;;;;;8.75;2.92;;;;;;;20.76;100.00;98908.31;1709286;81;21111;-70
2022/07/10 01:50:22;;;;;;;5.70;2.87;;;;;;;20.74;100.00;98903.13;1719940;82;22267;-70
2022/07/10 01:52:52;;;;;;;6.40;2.50;;;;;;;20.70;100.00;98901.52;1717066;82;21098;-70
2022/07/10 01:55:24;;;;;;;9.78;3.35;;;;;;;20.67;100.00;98898.94;1722401;82;21047;-71
2022/07/10 01:57:52;;;;;;;5.53;3.17;;;;;;;20.68;100.00;98900.53;1723615;82;21607;-70
2022/07/10 02:00:23;;;;;;;8.03;3.30;;;;;;;20.63;100.00;98900.34;1722176;82;21050;-70
2022/07/10 02:05:37;;;;;;;8.20;3.83;;;;;;;20.51;100.00;98899.38;1710850;82;21032;-70
2022/07/10 02:08:13;;;;;;;5.47;2.90;;;;;;;20.47;100.00;98896.58;1722347;82;21499;-70
2022/07/10 02:10:49;;;;;;;4.13;3.30;;;;;;;20.48;100.00;98898.78;1718246;82;21054;-71
2022/07/10 02:13:20;;;;;;;6.08;3.45;;;;;;;20.42;100.00;98906.19;1709999;82;21122;-70
2022/07/10 02:15:49;;;;;;;9.73;3.67;;;;;;;20.36;100.00;98903.61;1712082;81;20996;-66
2022/07/10 02:18:16;;;;;;;11.25;3.87;;;;;;;20.36;100.00;98902.80;1724454;82;21031;-71
2022/07/10 02:20:46;;;;;;;7.47;3.83;;;;;;;20.28;100.00;98895.04;1711607;81;21516;-71
2022/07/10 02:23:14;;;;;;;7.08;4.05;;;;;;;20.30;100.00;98893.42;1716671;81;21074;-68
2022/07/10 02:25:45;;;;;;;8.18;4.33;;;;;;;20.30;100.00;98894.05;1722239;82;21019;-71
2022/07/10 02:28:26;;;;;;;8.40;4.12;;;;;;;20.28;100.00;98902.81;1733348;82;21046;-71
2022/07/10 02:31:00;;;;;;;8.35;5.28;;;;;;;20.28;100.00;98895.04;1725849;82;21023;-67
2022/07/10 02:33:26;;;;;;;7.05;3.80;;;;;;;20.33;100.00;98896.63;1734659;82;21297;-68
2022/07/10 02:35:52;;;;;;;7.67;4.50;;;;;;;20.33;100.00;98894.63;1726200;82;21042;-71
2022/07/10 02:38:25;;;;;;;8.48;4.35;;;;;;;20.31;100.00;98884.44;1729125;82;21028;-70
2022/07/10 02:40:53;;;;;;;6.22;4.08;;;;;;;20.29;100.00;98885.44;1716014;82;21245;-69
2022/07/10 02:43:21;;;;;;;6.70;3.62;;;;;;;20.30;100.00;98885.66;1716099;82;21083;-66
2022/07/10 02:45:48;;;;;;;8.00;4.80;;;;;;;20.31;100.00;98883.04;1716876;82;21042;-65
2022/07/10 02:48:20;;;;;;;7.40;3.70;;;;;;;20.40;100.00;98881.23;1720349;82;20996;-69
2022/07/10 02:50:49;;;;;;;7.37;3.80;;;;;;;20.39;100.00;98877.62;1729989;81;21039;-70
2022/07/10 02:53:20;;;;;;;6.85;4.03;;;;;;;20.38;100.00;98885.02;1731451;82;21147;-70
2022/07/10 02:55:52;;;;;;;8.45;4.05;;;;;;;20.41;100.00;98878.63;1725483;82;21065;-70
2022/07/10 02:58:20;;;;;;;8.55;4.22;;;;;;;20.48;100.00;98884.20;1728097;82;21102;-71
2022/07/10 03:00:47;;;;;;;9.30;4.03;;;;;;;20.50;100.00;98886.00;1731854;82;21043;-68
2022/07/10 03:03:17;;;;;;;10.32;4.30;;;;;;;20.51;100.00;98879.78;1722911;82;21078;-71
2022/07/10 03:05:45;;;;;;;6.12;4.78;;;;;;;20.62;100.00;98881.98;1727990;82;22034;-70
2022/07/10 03:08:12;;;;;;;9.48;4.12;;;;;;;20.56;100.00;98882.17;1729061;82;20995;-71
2022/07/10 03:10:40;;;;;;;9.58;4.78;;;;;;;20.62;100.00;98879.77;1689832;82;21085;-70
2022/07/10 03:13:08;;;;;;;7.50;3.95;;;;;;;20.65;100.00;98876.97;1728874;82;21050;-71
2022/07/10 03:15:39;;;;;;;7.95;4.30;;;;;;;20.70;100.00;98882.73;1730455;81;21023;-69
2022/07/10 03:18:09;;;;;;;8.93;4.40;;;;;;;20.72;100.00;98883.73;1727632;82;21792;-71
2022/07/10 03:20:43;;;;;;;10.32;4.33;;;;;;;20.75;100.00;98887.11;1728765;81;20999;-70
2022/07/10 03:23:10;;;;;;;8.83;4.47;;;;;;;20.78;100.00;98889.91;1743837;81;21014;-70
2022/07/10 03:25:42;;;;;;;6.65;4.03;;;;;;;20.83;100.00;98892.09;1747424;81;20995;-71
2022/07/10 03:28:10;;;;;;;6.78;3.92;;;;;;;20.89;100.00;98889.06;1726835;81;21034;-71
2022/07/10 03:30:40;;;;;;;10.58;4.28;;;;;;;20.93;100.00;98891.29;1741643;81;21125;-70
2022/07/10 03:33:09;;;;;;;6.30;3.87;;;;;;;21.00;100.00;98889.84;1747616;81;21038;-69
2022/07/10 03:35:39;;;;;;;9.23;4.00;;;;;;;21.08;100.00;98894.81;1748714;81;21403;-69
2022/07/10 03:38:11;;;;;;;6.37;3.60;;;;;;;21.09;100.00;98889.41;1731538;81;21066;-69
2022/07/10 03:40:42;;;;;;;8.05;4.10;;;;;;;21.07;100.00;98887.61;1745442;81;22366;-70
2022/07/10 03:43:12;;;;;;;11.20;3.92;;;;;;;21.10;100.00;98891.61;1748213;81;21806;-72
2022/07/10 03:45:42;;;;;;;9.28;4.42;;;;;;;21.08;100.00;98895.41;1744848;81;21034;-68
2022/07/10 03:48:09;;;;;;;16.37;3.55;;;;;;;21.14;100.00;98900.18;1742697;81;21090;-67
2022/07/10 03:50:36;;;;;;;8.85;3.72;;;;;;;21.11;100.00;98905.20;1749153;81;21506;-73
2022/07/10 03:53:06;;;;;;;8.33;3.40;;;;;;;21.09;100.00;98911.00;1747571;81;20999;-72
2022/07/10 03:55:34;;;;;;;6.58;3.80;;;;;;;21.19;100.00;98911.55;1739440;81;21257;-72
2022/07/10 03:58:02;;;;;;;7.28;3.10;;;;;;;21.21;100.00;98898.53;1745446;81;20997;-71
2022/07/10 04:00:44;;;;;;;;;;;;;;;;;;;;;
2022/07/10 04:03:03;;;;;;;4.03;3.55;;;;;;;21.20;100.00;98901.16;1736293;81;21006;-68
2022/07/10 04:05:30;;;;;;;3.87;3.00;;;;;;;21.19;100.00;98898.95;1719289;81;21058;-69
2022/07/10 04:07:57;;;;;;;4.03;3.25;;;;;;;21.26;100.00;98896.11;1740041;81;21125;-71
2022/07/10 04:10:28;;;;;;;6.75;2.70;;;;;;;21.21;100.00;98895.73;1741936;81;20983;-71
2022/07/10 04:13:04;;;;;;;8.05;3.27;;;;;;;21.32;100.00;98895.69;1745040;81;21602;-70
2022/07/10 04:15:34;;;;;;;4.17;2.92;;;;;;;21.32;100.00;98892.89;1741907;81;21049;-69
2022/07/10 04:18:15;;;;;;;3.02;2.70;;;;;;;21.30;100.00;98894.70;1739223;81;20999;-69
2022/07/10 04:20:46;;;;;;;5.55;3.25;;;;;;;21.46;100.00;98885.78;1739105;81;21124;-69
2022/07/10 04:23:15;;;;;;;3.50;2.92;;;;;;;21.34;100.00;98882.85;1720582;82;21055;-72
2022/07/10 04:25:48;;;;;;;7.42;2.98;;;;;;;21.42;100.00;98881.41;1722130;81;21019;-70
2022/07/10 04:28:20;;;;;;;4.60;2.80;;;;;;;21.48;100.00;98876.96;1715932;80;20996;-71
2022/07/10 04:30:49;;;;;;;5.95;3.42;;;;;;;21.49;100.00;98879.98;1718851;82;21074;-71
2022/07/10 04:33:16;;;;;;;3.47;2.50;;;;;;;21.48;100.00;98882.56;1717679;82;21506;-71
2022/07/10 04:35:44;;;;;;;3.52;2.75;;;;;;;21.53;100.00;98880.14;1721090;82;21019;-70
2022/07/10 04:38:17;;;;;;;3.27;2.55;;;;;;;21.59;100.00;98883.91;1717295;82;21000;-69
2022/07/10 04:40:44;;;;;;;6.53;2.92;;;;;;;21.69;100.00;98881.63;1721220;82;21023;-71
2022/07/10 04:43:11;;;;;;;3.45;2.70;;;;;;;21.67;100.00;98881.23;1714421;82;21754;-71
2022/07/10 04:45:37;;;;;;;4.47;2.70;;;;;;;21.68;100.00;98877.25;1715590;82;21764;-69
2022/07/10 04:48:05;;;;;;;4.30;2.90;;;;;;;21.70;100.00;98877.61;1723231;82;21047;-68
2022/07/10 04:50:33;;;;;;;4.42;3.20;;;;;;;21.82;100.00;98874.94;1721892;81;20989;-67
2022/07/10 04:53:01;;;;;;;4.33;3.00;;;;;;;21.79;100.00;98877.77;1723889;81;21000;-66
2022/07/10 04:55:33;;;;;;;13.03;3.52;;;;;;;21.87;100.00;98874.50;1725004;82;21031;-72
2022/07/10 04:58:04;;;;;;;5.08;3.22;;;;;;;21.92;100.00;98869.05;1721070;82;21115;-71
2022/07/10 05:00:32;;;;;;;5.62;3.10;;;;;;;21.99;100.00;98873.20;1719178;82;21000;-69
2022/07/10 05:02:59;;;;;;;4.45;2.35;;;;;;;22.17;100.00;98865.83;1722343;82;21007;-69
2022/07/10 05:05:28;;;;;;;3.58;2.45;;;;;;;22.32;100.00;98874.30;1721478;82;21130;-70
2022/07/10 05:08:01;;;;;;;3.90;2.40;;;;;;;22.25;100.00;98877.17;1715991;81;21074;-73
2022/07/10 05:10:29;;;;;;;6.90;2.83;;;;;;;22.28;100.00;98876.33;1717234;82;21762;-70
2022/07/10 05:12:57;;;;;;;5.62;2.95;;;;;;;22.34;100.00;98876.09;1714944;82;21590;-72
2022/07/10 05:15:24;;;;;;;4.33;2.85;;;;;;;22.40;100.00;98875.63;1721202;82;21541;-70
2022/07/10 05:17:52;;;;;;;4.95;2.70;;;;;;;22.46;100.00;98870.55;1715491;82;21059;-71
2022/07/10 05:20:21;;;;;;;4.58;2.67;;;;;;;22.55;100.00;98871.46;1722778;82;21026;-72
2022/07/10 05:22:47;;;;;;;5.65;2.60;;;;;;;22.56;100.00;98867.42;1740953;80;21806;-70
2022/07/10 05:25:21;;;;;;;5.35;2.77;;;;;;;22.58;100.00;98865.61;1744175;81;21565;-65
2022/07/10 05:27:48;;;;;;;6.20;2.85;;;;;;;22.88;100.00;98866.09;1752185;81;21606;-71
2022/07/10 05:30:21;;;;;;;3.65;3.02;;;;;;;23.07;100.00;98862.62;1741215;81;21593;-72
2022/07/10 05:32:48;;;;;;;5.10;2.33;;;;;;;23.13;100.00;98850.31;1748322;81;21121;-72
2022/07/10 05:35:19;;;;;;;3.12;2.65;;;;;;;23.19;100.00;98853.42;1743612;81;21053;-70
2022/07/10 05:37:45;;;;;;;3.40;2.40;;;;;;;23.23;100.00;98854.18;1746698;81;21082;-71
2022/07/10 05:40:13;;;;;;;6.53;2.27;;;;;;;23.33;100.00;98848.21;1726323;81;20967;-70
2022/07/10 05:42:42;;;;;;;3.12;2.30;;;;;;;23.43;100.00;98854.31;1759221;81;21019;-71
2022/07/10 05:45:13;;;;;;;3.83;2.62;;;;;;;23.61;100.00;98851.04;1757652;80;21083;-67
2022/07/10 05:47:47;;;;;;;4.08;2.20;;;;;;;23.65;100.00;98850.35;1751455;80;21790;-72
2022/07/10 05:50:14;;;;;;;3.02;2.30;;;;;;;23.89;100.00;98847.55;1754663;81;21042;-70
2022/07/10 05:52:41;;;;;;;3.17;2.37;;;;;;;23.86;100.00;98841.38;1756415;81;21018;-70
2022/07/10 05:55:08;;;;;;;4.30;2.87;;;;;;;23.65;100.00;98843.33;1753182;81;21035;-68
2022/07/10 05:57:35;;;;;;;3.90;2.47;;;;;;;23.61;100.00;98847.59;1758803;81;21038;-70
2022/07/10 06:00:05;;;;;;;3.42;2.10;;;;;;;23.68;100.00;98839.66;1743679;81;21099;-71
2022/07/10 06:02:35;;;;;;;5.00;2.67;;;;;;;23.73;100.00;98835.59;1749590;81;21049;-73
2022/07/10 06:05:02;;;;;;;7.05;2.50;;;;;;;23.86;100.00;98838.57;1746792;81;21046;-71
2022/07/10 06:07:34;;;;;;;6.30;2.58;;;;;;;24.03;100.00;98843.70;1743624;81;21131;-66
2022/07/10 06:10:03;;;;;;;4.75;2.58;;;;;;;24.21;100.00;98839.17;1715394;81;20992;-67
2022/07/10 06:12:33;;;;;;;6.78;2.75;;;;;;;24.26;100.00;98833.68;1744524;81;21141;-70
2022/07/10 06:15:09;;;;;;;7.62;2.67;;;;;;;24.34;100.00;98836.53;1751950;81;21022;-72
2022/07/10 06:17:41;;;;;;;9.35;2.75;;;;;;;24.33;100.00;98841.19;1743784;81;21049;-71
2022/07/10 06:20:13;;;;;;;5.22;2.40;;;;;;;24.53;100.00;98835.57;1744386;81;21094;-71
2022/07/10 06:22:43;;;;;;;3.98;2.30;;;;;;;24.61;100.00;98829.17;1747165;81;21033;-64
2022/07/10 06:25:12;;;;;;;4.83;3.08;;;;;;;24.67;100.00;98834.46;1730941;81;25766;-71
2022/07/10 06:27:40;;;;;;;5.05;2.33;;;;;;;24.71;100.00;98830.97;1745928;81;21053;-70
2022/07/10 06:30:10;;;;;;;5.85;3.45;;;;;;;24.66;100.00;98835.09;1744668;81;21045;-71
2022/07/10 06:32:39;;;;;;;5.42;2.95;;;;;;;24.66;100.00;98827.25;1745723;81;21074;-70
2022/07/10 06:35:07;;;;;;;6.65;3.83;;;;;;;24.83;100.00;98829.52;1744566;81;21559;-68
2022/07/10 06:37:39;;;;;;;11.05;4.72;;;;;;;25.04;100.00;98833.90;1733502;81;21041;-70
2022/07/10 06:40:08;;;;;;;12.10;4.15;;;;;;;25.12;100.00;98825.30;1739717;81;21036;-69
2022/07/10 06:42:36;;;;;;;7.33;3.60;;;;;;;25.22;100.00;98823.45;1745632;81;21062;-69
2022/07/10 06:45:05;;;;;;;3.77;2.22;;;;;;;25.41;100.00;98821.81;1747351;81;21037;-72
2022/07/10 06:50:23;;;;;;;4.00;1.70;;;;;;;25.70;100.00;98821.74;1741422;81;21784;-69
2022/07/10 06:52:59;;;;;;;6.05;2.10;;;;;;;25.69;100.00;98820.94;1747216;81;21522;-66
2022/07/10 06:55:31;;;;;;;4.40;2.20;;;;;;;25.85;100.00;98825.79;1751422;81;21043;-70
2022/07/10 06:57:59;;;;;;;5.62;2.80;;;;;;;25.89;100.00;98824.29;1745135;81;21051;-68
2022/07/10 07:00:25;;;;;;;5.12;2.00;;;;;;;25.90;100.00;98820.22;1751143;81;21053;-69
2022/07/10 07:02:55;;;;;;;2.58;1.98;;;;;;;25.87;100.00;98823.94;1748929;81;21916;-71
2022/07/10 07:05:25;;;;;;;5.70;2.80;;;;;;;25.71;100.00;98824.12;1751064;81;20994;-71
2022/07/10 07:07:53;;;;;;;6.72;2.65;;;;;;;25.81;100.00;98821.48;1749749;81;21097;-68
2022/07/10 07:10:21;;;;;;;4.35;2.58;;;;;;;25.83;100.00;98819.79;1749350;81;21034;-66
2022/07/10 07:12:48;;;;;;;5.85;2.40;;;;;;;25.63;100.00;98822.11;1747386;81;21063;-68
2022/07/10 07:15:16;;;;;;;4.70;2.12;;;;;;;25.47;100.00;98817.22;1749483;81;21058;-66
2022/07/10 07:18:52;;;;;;;7.33;2.58;;;;;;;25.48;100.00;98815.20;1748633;81;21042;-70
2022/07/10 07:23:15;;;;;;;2.95;2.33;;;;;;;25.51;100.00;98813.71;1736668;81;21019;-69
2022/07/10 07:25:46;;;;;;;3.95;2.22;;;;;;;25.52;100.00;98815.92;1717061;82;21012;-71
2022/07/10 07:28:17;;;;;;;6.05;2.58;;;;;;;25.61;100.00;98813.88;1712973;82;21567;-70
2022/07/10 07:30:49;;;;;;;2.85;1.92;;;;;;;25.63;100.00;98815.64;1720486;82;21019;-72
2022/07/10 07:33:21;;;;;;;4.45;2.22;;;;;;;25.65;100.00;98810.39;1721644;82;20999;-70
2022/07/10 07:35:49;;;;;;;4.10;2.37;;;;;;;25.66;100.00;98813.38;1721965;82;21046;-68
2022/07/10 07:38:18;;;;;;;3.72;2.05;;;;;;;25.76;100.00;98814.36;1721924;82;21062;-74
2022/07/10 07:40:48;;;;;;;4.53;2.27;;;;;;;25.70;100.00;98807.64;1716849;82;20984;-69
2022/07/10 07:43:21;;;;;;;3.37;2.00;;;;;;;25.49;100.00;98811.94;1727797;82;21488;-70
2022/07/10 07:45:59;;;;;;;3.35;2.45;;;;;;;25.52;100.00;98808.23;1725003;82;21024;-67
2022/07/10 07:48:26;;;;;;;5.10;2.50;;;;;;;25.64;100.00;98805.99;1718685;82;21047;-73
2022/07/10 07:50:53;;;;;;;5.40;2.30;;;;;;;25.76;100.00;98808.72;1724856;82;21040;-71
2022/07/10 07:53:22;;;;;;;4.28;2.20;;;;;;;25.66;100.00;98806.32;1718890;82;21070;-72
2022/07/10 07:55:53;;;;;;;3.42;2.22;;;;;;;25.71;100.00;98805.79;1718271;82;20987;-74
2022/07/10 07:58:21;;;;;;;5.87;2.22;;;;;;;25.81;100.00;98804.56;1719603;82;21011;-70
2022/07/10 08:00:48;;;;;;;6.17;2.62;;;;;;;25.94;100.00;98806.83;1690344;82;21027;-75
2022/07/10 08:03:18;;;;;;;5.75;2.62;;;;;;;25.99;100.00;98807.70;1717343;82;21034;-79
2022/07/10 08:05:48;;;;;;;6.17;2.95;;;;;;;26.12;100.00;98814.00;1723603;82;21307;-72
2022/07/10 08:08:14;;;;;;;3.35;3.05;;;;;;;26.16;100.00;98813.30;1724237;81;21004;-75
2022/07/10 08:10:43;;;;;;;4.08;2.80;;;;;;;26.18;100.00;98808.01;1720970;82;21020;-74
2022/07/10 08:13:12;;;;;;;5.30;2.52;;;;;;;26.26;100.00;98805.77;1722414;81;21024;-67
2022/07/10 08:15:40;;;;;;;7.62;2.90;;;;;;;26.40;100.00;98804.61;1725202;82;20999;-72
2022/07/10 08:18:07;;;;;;;4.95;2.42;;;;;;;26.64;100.00;98799.30;1723040;82;21773;-69
2022/07/10 08:20:35;;;;;;;5.67;2.70;;;;;;;26.89;100.00;98799.95;1719220;82;21076;-68
2022/07/10 08:23:02;;;;;;;5.35;3.15;;;;;;;26.90;100.00;98804.99;1718625;79;21075;-68
2022/07/10 08:25:32;;;;;;;6.70;2.85;;;;;;;27.02;100.00;98792.95;1724500;82;21496;-68
2022/07/10 08:28:05;;;;;;;4.67;2.75;;;;;;;27.08;100.00;98802.44;1717010;82;21003;-70
2022/07/10 08:30:41;;;;;;;;;;;;;;;27.16;100.00;98801.58;1726454;82;21842;-70
2022/07/10 08:33:11;;;;;;;3.50;2.20;;;;;;;26.96;100.00;98791.27;1723691;82;20456;-71
2022/07/10 08:35:41;;;;;;;8.20;2.80;;;;;;;27.04;100.00;98789.02;1722052;82;21063;-71
2022/07/10 08:38:08;;;;;;;5.90;2.52;;;;;;;27.15;100.00;98790.72;1725377;82;21550;-73
2022/07/10 08:40:40;;;;;;;7.70;2.77;;;;;;;27.24;100.00;98795.70;1719974;82;21087;-68
2022/07/10 08:43:07;;;;;;;5.28;2.80;;;;;;;27.42;100.00;98786.63;1723493;82;21539;-69
2022/07/10 08:45:37;;;;;;;5.92;2.25;;;;;;;27.44;100.00;98789.80;1703113;82;21481;-68
2022/07/10 08:48:07;;;;;;;6.07;2.90;;;;;;;27.43;100.00;98787.59;1710937;82;21609;-68
2022/07/10 08:50:38;;;;;;;5.10;2.83;;;;;;;27.49;100.00;98785.59;1716046;82;21048;-71
2022/07/10 08:53:20;;;;;;;7.58;3.15;;;;;;;27.30;100.00;98789.64;1719445;82;21067;-70
2022/07/10 08:55:48;;;;;;;5.58;2.58;;;;;;;27.38;100.00;98781.09;1719016;82;21240;-70
2022/07/10 08:58:16;;;;;;;4.15;2.65;;;;;;;27.37;100.00;98786.59;1725030;82;21016;-69
2022/07/10 09:00:50;;;;;;;3.62;2.35;;;;;;;27.25;100.00;98781.11;1718114;82;21059;-71
2022/07/10 09:03:17;;;;;;;7.05;2.85;;;;;;;27.07;100.00;98784.52;1725386;82;21013;-71
2022/07/10 09:05:46;;;;;;;4.55;2.55;;;;;;;26.95;100.00;98788.89;1719506;82;21012;-72
2022/07/10 09:08:32;;;;;;;8.80;2.65;;;;;;;26.80;100.00;98787.13;1722998;82;21171;-70
2022/07/10 09:11:23;;;;;;;3.92;2.55;;;;;;;26.62;100.00;98789.86;1724346;82;21094;-67
2022/07/10 09:13:52;;;;;;;10.58;2.92;;;;;;;26.55;100.00;98794.30;1695393;82;21043;-69
2022/07/10 09:16:29;;;;;;;7.40;2.27;;;;;;;26.64;100.00;98789.41;1724899;82;21070;-68
2022/07/10 09:18:56;;;;;;;4.47;2.25;;;;;;;26.63;100.00;98787.84;1724398;82;21083;-70
2022/07/10 09:21:26;;;;;;;5.80;2.75;;;;;;;26.64;100.00;98788.80;1721642;82;21824;-69
2022/07/10 09:23:58;;;;;;;7.47;2.52;;;;;;;26.66;100.00;98782.70;1726400;81;21666;-67
2022/07/10 09:26:25;;;;;;;9.15;2.42;;;;;;;26.68;100.00;98778.17;1724370;81;21520;-71
2022/07/10 09:29:10;;;;;;;4.30;2.47;;;;;;;26.69;100.00;98778.36;1750841;81;21046;-71
2022/07/10 09:31:55;;;;;;;3.63;2.63;;;;;;;26.75;100.00;98787.05;1750400;81;21002;-71
2022/07/10 09:37:42;;;;;;;4.08;2.27;;;;;;;26.73;100.00;98775.44;1720638;81;21038;-71
2022/07/10 09:40:10;;;;;;;3.75;2.08;;;;;;;26.64;100.00;98777.50;1723231;81;21058;-67
2022/07/10 09:42:43;;;;;;;2.65;1.65;;;;;;;26.62;100.00;98775.74;1750738;81;21004;-69
2022/07/10 09:45:18;;;;;;;3.35;2.20;;;;;;;26.62;100.00;98774.33;1747440;81;20990;-70
2022/07/10 09:48:00;;;;;;;6.08;2.30;;;;;;;26.61;100.00;98766.47;1749800;81;21585;-70
2022/07/10 09:50:33;;;;;;;7.03;2.35;;;;;;;26.65;100.00;98767.01;1750103;81;21077;-66
2022/07/10 09:53:09;;;;;;;3.17;1.55;;;;;;;26.84;100.00;98767.41;1750033;81;20995;-71
2022/07/10 09:55:37;;;;;;;1.62;1.40;;;;;;;27.20;100.00;98768.95;1749249;81;21574;-71
2022/07/10 09:58:08;;;;;;;2.65;1.25;;;;;;;27.51;100.00;98759.08;1750055;81;20998;-70
2022/07/10 10:00:40;;;;;;;2.37;1.50;;;;;;;27.67;100.00;98754.67;1751235;81;21083;-72
2022/07/10 10:03:11;;;;;;;3.50;1.85;;;;;;;27.73;100.00;98760.58;1752352;81;21085;-72
2022/07/10 10:05:44;;;;;;;2.70;2.20;;;;;;;27.85;100.00;98757.53;1751925;81;21069;-72
2022/07/10 10:08:25;;;;;;;4.45;1.85;;;;;;;28.04;100.00;98758.48;1745692;81;21043;-73
2022/07/10 10:10:53;;;;;;;6.78;1.60;;;;;;;28.29;100.00;98755.97;1750647;81;21093;-71
2022/07/10 10:13:22;;;;;;;4.12;1.65;;;;;;;28.47;100.00;98753.94;1750582;81;21160;-73
2022/07/10 10:16:01;;;;;;;3.80;1.98;;;;;;;28.36;100.00;98759.19;1745088;81;21003;-70
2022/07/10 10:21:29;;;;;;;4.15;1.60;;;;;;;28.40;100.00;98745.08;1749774;81;21018;-68
2022/07/10 10:23:56;;;;;;;2.85;1.80;;;;;;;28.48;100.00;98745.59;1750056;81;21085;-73
2022/07/10 10:26:24;;;;;;;6.10;1.70;;;;;;;28.29;100.00;98748.89;1749551;81;21156;-73
2022/07/10 10:28:52;;;;;;;4.40;1.80;;;;;;;28.32;100.00;98746.55;1743541;81;20975;-74
2022/07/10 10:31:20;;;;;;;2.80;1.70;;;;;;;28.29;100.00;98751.11;1748433;81;21030;-67
2022/07/10 10:33:51;;;;;;;2.70;1.62;;;;;;;28.23;100.00;98743.67;1748109;81;21018;-72
2022/07/10 10:36:44;;;;;;;2.25;1.47;;;;;;;28.32;100.00;98740.89;1748429;81;21042;-69
2022/07/10 10:39:16;;;;;;;3.55;1.62;;;;;;;28.36;100.00;98743.62;1749213;81;21632;-72
2022/07/10 10:41:53;;;;;;;2.33;1.50;;;;;;;28.44;99.24;98740.67;1749652;81;21050;-70
2022/07/10 10:44:28;;;;;;;11.30;1.70;;;;;;;28.53;92.86;98739.94;1745281;81;21517;-73
2022/07/10 10:47:01;;;;;;;2.50;1.50;;;;;;;28.25;94.64;98734.09;1744647;80;20983;-71
2022/07/10 10:49:26;;;;;;;4.33;2.12;;;;;;;28.19;95.48;98727.61;1747724;81;21750;-72
2022/07/10 10:52:07;;;;;;;3.25;1.98;;;;;;;28.28;94.45;98721.84;1749605;81;21203;-72
2022/07/10 10:55:01;;;;;;;2.15;1.50;;;;;;;28.37;96.00;98712.65;1744101;81;20974;-73
2022/07/10 10:57:39;;;;;;;2.47;1.27;;;;;;;28.76;95.29;98710.30;1721596;81;26487;-69
2022/07/10 11:00:08;;;;;;;1.55;1.30;;;;;;;28.91;90.57;98719.66;1749388;81;21578;-70
2022/07/10 11:02:39;;;;;;;3.27;1.72;;;;;;;28.77;87.21;98713.31;1744719;81;21553;-67
2022/07/10 11:05:18;;;;;;;2.45;1.60;;;;;;;28.67;92.24;98711.08;1747643;81;21283;-69
2022/07/10 11:07:58;;;;;;;2.95;1.30;;;;;;;28.70;90.28;98709.95;1747603;81;21046;-71
2022/07/10 11:10:35;;;;;;;4.80;1.72;;;;;;;28.61;89.65;98705.06;1747836;81;21006;-71
2022/07/10 11:13:17;;;;;;;2.27;1.37;;;;;;;28.82;90.85;98708.27;1747387;81;20979;-70
2022/07/10 11:15:47;;;;;;;4.00;1.40;;;;;;;28.85;88.56;98710.20;1747572;81;21062;-72
2022/07/10 11:18:19;;;;;;;3.25;2.00;;;;;;;28.79;88.33;98701.52;1745258;81;21236;-73
2022/07/10 11:20:51;;;;;;;2.62;1.72;;;;;;;28.74;83.97;98704.95;1747843;81;20995;-72
2022/07/10 11:24:10;;;;;;;4.67;1.95;;;;;;;28.48;89.26;98706.55;1743724;81;21047;-71
2022/07/10 11:26:40;;;;;;;5.17;2.37;;;;;;;28.39;93.23;98706.67;1747747;81;21034;-71
2022/07/10 11:29:07;;;;;;;6.05;2.75;;;;;;;28.43;94.42;98707.34;1721338;81;21023;-72
2022/07/10 11:31:40;;;;;;;3.70;2.10;;;;;;;28.56;92.15;98706.44;1743219;81;21099;-73
2022/07/10 11:34:03;;;;;;;5.05;2.52;;;;;;;28.59;88.80;98709.78;1748057;81;21003;-71
2022/07/10 11:36:33;;;;;;;4.15;3.40;;;;;;;28.82;87.35;98703.41;1749663;81;21062;-70
2022/07/10 11:39:08;;;;;;;5.28;2.60;;;;;;;28.79;90.09;98700.09;1748152;81;21037;-74
2022/07/10 11:41:46;;;;;;;1.62;1.50;;;;;;;29.08;90.09;98702.41;1741701;81;21499;-71
2022/07/10 11:44:20;;;;;;;3.42;1.85;;;;;;;28.95;94.81;98703.93;1747766;81;21553;-74
2022/07/10 11:46:49;;;;;;;2.95;1.20;;;;;;;29.12;92.79;98706.67;1747780;80;21011;-73
2022/07/10 11:49:15;;;;;;;5.33;1.45;;;;;;;29.27;89.22;98703.25;1742239;81;21010;-69
2022/07/10 11:51:45;;;;;;;2.45;1.22;;;;;;;29.45;89.34;98705.94;1748767;81;21098;-66
2022/07/10 11:54:18;;;;;;;2.02;1.40;;;;;;;29.49;85.23;98699.49;1743557;81;21080;-70
2022/07/10 11:56:53;;;;;;;4.25;2.72;;;;;;;29.66;80.69;98703.47;1748410;81;21128;-72
2022/07/10 11:59:27;;;;;;;1.98;1.47;;;;;;;29.35;81.49;98700.89;1744916;81;20987;-69